createdAt,value
2017-11-07T00:01:45.401Z,101113.96
2017-11-07T00:04:48.323Z,101111.27
2017-11-07T00:07:49.685Z,101105.06
2017-11-07T00:10:51.037Z,101109.03
2017-11-07T00:13:52.367Z,101105.05
2017-11-07T00:16:53.739Z,101108.54
2017-11-07T00:19:55.130Z,101103.30
2017-11-07T00:22:56.408Z,101108.91
2017-11-07T00:25:58.472Z,101103.62
2017-11-07T00:29:00.548Z,101104.91
2017-11-07T00:32:02.679Z,101107.47
2017-11-07T00:35:03.987Z,101103.09
2017-11-07T00:38:05.322Z,101114.56
2017-11-07T00:41:06.617Z,101092.91
2017-11-07T00:44:07.974Z,101091.65
2017-11-07T00:47:09.373Z,101093.88
2017-11-07T00:50:10.693Z,101093.39
2017-11-07T00:53:12.073Z,101088.06
2017-11-07T00:56:13.381Z,101086.80
2017-11-07T00:59:14.706Z,101081.13
2017-11-07T01:02:16.024Z,101079.30
2017-11-07T01:05:17.327Z,101078.88
2017-11-07T01:08:18.732Z,101075.34
2017-11-07T01:11:20.023Z,101064.37
2017-11-07T01:14:21.358Z,101056.80
2017-11-07T01:17:22.714Z,101061.27
2017-11-07T01:20:24.008Z,101058.93
2017-11-07T01:23:26.054Z,101055.48
2017-11-07T01:26:27.394Z,101050.22
2017-11-07T01:29:28.711Z,101047.98
2017-11-07T01:32:30.054Z,101049.22
2017-11-07T01:35:31.455Z,101049.33
2017-11-07T01:38:32.786Z,101043.98
2017-11-07T01:41:34.144Z,101046.76
2017-11-07T01:44:35.499Z,101034.11
2017-11-07T01:47:36.865Z,101041.95
2017-11-07T01:50:38.278Z,101033.73
2017-11-07T01:53:39.627Z,101039.85
2017-11-07T01:56:40.981Z,101030.22
2017-11-07T01:59:42.373Z,101032.07
2017-11-07T02:02:44.438Z,101032.15
2017-11-07T02:05:46.526Z,101046.11
2017-11-07T02:08:47.892Z,101027.70
2017-11-07T02:11:49.245Z,101039.52
2017-11-07T02:14:57.547Z,101041.18
2017-11-07T02:17:58.921Z,101025.09
2017-11-07T02:21:00.292Z,101022.00
2017-11-07T02:24:01.683Z,101023.70
2017-11-07T02:27:03.067Z,101021.75
2017-11-07T02:30:04.454Z,101026.13
2017-11-07T02:33:05.813Z,101015.97
2017-11-07T02:36:07.163Z,101019.77
2017-11-07T02:39:08.503Z,101023.90
2017-11-07T02:42:09.855Z,101015.92
2017-11-07T02:45:11.210Z,101008.55
2017-11-07T02:48:12.557Z,101009.75
2017-11-07T02:51:13.961Z,101008.73
2017-11-07T02:54:15.247Z,101013.91
2017-11-07T02:57:16.563Z,101001.86
2017-11-07T03:00:17.887Z,100996.73
2017-11-07T03:03:19.958Z,101015.38
2017-11-07T03:06:21.351Z,101007.52
2017-11-07T03:09:22.663Z,101002.61
2017-11-07T03:12:23.992Z,100999.42
2017-11-07T03:15:26.047Z,100993.17
2017-11-07T03:18:27.366Z,100996.54
2017-11-07T03:21:28.694Z,100992.17
2017-11-07T03:24:30.073Z,100989.50
2017-11-07T03:27:31.428Z,100994.30
2017-11-07T03:30:32.765Z,100982.58
2017-11-07T03:33:34.101Z,100982.52
2017-11-07T03:36:35.420Z,100991.66
2017-11-07T03:39:37.521Z,100987.78
2017-11-07T03:42:38.816Z,100973.78
2017-11-07T03:45:40.914Z,100967.57
2017-11-07T03:48:42.237Z,100967.96
2017-11-07T03:51:44.306Z,100977.92
2017-11-07T03:54:46.314Z,100963.11
2017-11-07T03:57:47.642Z,100971.45
2017-11-07T04:00:49.013Z,100978.20
2017-11-07T04:03:50.305Z,100973.83
2017-11-07T04:06:51.635Z,100974.69
2017-11-07T04:09:53.718Z,100973.59
2017-11-07T04:12:55.048Z,100977.23
2017-11-07T04:15:56.360Z,100973.28
2017-11-07T04:18:57.707Z,100982.02
2017-11-07T04:21:59.027Z,100971.79
2017-11-07T04:25:00.402Z,100971.80
2017-11-07T04:28:02.495Z,100969.61
2017-11-07T04:31:03.768Z,100966.98
2017-11-07T04:34:05.104Z,100970.50
2017-11-07T04:37:06.408Z,100972.95
2017-11-07T04:40:08.476Z,100974.58
2017-11-07T04:43:10.559Z,100968.47
2017-11-07T04:46:11.909Z,100972.03
2017-11-07T04:49:13.266Z,100962.52
2017-11-07T04:52:14.548Z,100956.50
2017-11-07T04:55:15.890Z,100973.53
2017-11-07T04:58:17.231Z,100975.47
2017-11-07T05:01:18.628Z,100987.26
2017-11-07T05:04:19.954Z,100988.59
2017-11-07T05:07:21.328Z,100987.44
2017-11-07T05:10:22.714Z,100982.31
2017-11-07T05:13:24.041Z,100979.52
2017-11-07T05:16:26.143Z,100979.86
2017-11-07T05:19:27.451Z,100964.89
2017-11-07T05:22:28.758Z,100981.48
2017-11-07T05:25:30.093Z,100973.55
2017-11-07T05:28:31.429Z,100977.53
2017-11-07T05:31:32.749Z,100973.56
2017-11-07T05:34:34.770Z,100975.46
2017-11-07T05:37:36.167Z,100985.84
2017-11-07T05:40:38.250Z,100976.78
2017-11-07T05:43:39.696Z,100969.77
2017-11-07T05:46:41.805Z,100972.23
2017-11-07T05:49:43.167Z,100977.75
2017-11-07T05:52:44.532Z,100971.08
2017-11-07T05:55:45.870Z,100958.67
2017-11-07T05:58:47.192Z,100966.38
2017-11-07T06:01:48.487Z,100957.28
2017-11-07T06:04:49.814Z,100955.61
2017-11-07T06:07:51.155Z,100946.27
2017-11-07T06:10:52.487Z,100944.84
2017-11-07T06:13:53.812Z,100957.80
2017-11-07T06:16:55.854Z,100953.52
2017-11-07T06:19:57.178Z,100951.71
2017-11-07T06:22:58.506Z,100957.81
2017-11-07T06:25:59.820Z,100953.14
2017-11-07T06:29:01.876Z,100949.33
2017-11-07T06:32:03.943Z,100956.05
2017-11-07T06:35:05.267Z,100958.21
2017-11-07T06:38:06.603Z,100956.77
2017-11-07T06:41:08.187Z,100950.73
2017-11-07T06:44:09.524Z,100940.57
2017-11-07T06:47:10.817Z,100943.53
2017-11-07T06:50:12.908Z,100944.48
2017-11-07T06:53:14.235Z,100935.41
2017-11-07T06:56:16.276Z,100933.33
2017-11-07T06:59:17.663Z,100933.71
2017-11-07T07:02:19.028Z,100937.05
2017-11-07T07:05:20.347Z,100935.52
2017-11-07T07:08:22.467Z,100934.72
2017-11-07T07:11:23.861Z,100932.56
2017-11-07T07:14:25.966Z,100931.65
2017-11-07T07:17:27.258Z,100919.42
2017-11-07T07:20:28.568Z,100924.77
2017-11-07T07:23:29.876Z,100920.88
2017-11-07T07:26:31.954Z,100923.85
2017-11-07T07:29:34.033Z,100911.53
2017-11-07T07:32:35.354Z,100919.61
2017-11-07T07:35:36.699Z,100916.88
2017-11-07T07:38:38.018Z,100911.14
2017-11-07T07:41:39.335Z,100923.47
2017-11-07T07:44:40.612Z,100922.53
2017-11-07T07:47:41.934Z,100921.20
2017-11-07T07:50:43.247Z,100926.13
2017-11-07T07:53:44.560Z,100915.14
2017-11-07T07:56:52.869Z,100928.23
2017-11-07T07:59:54.197Z,100917.70
2017-11-07T08:02:55.561Z,100914.59
2017-11-07T08:05:56.893Z,100915.92
2017-11-07T08:08:58.316Z,100906.97
2017-11-07T08:12:00.703Z,100905.30
2017-11-07T08:15:02.066Z,100908.81
2017-11-07T08:18:03.418Z,100905.44
2017-11-07T08:21:04.778Z,100911.92
2017-11-07T08:24:06.095Z,100910.08
2017-11-07T08:27:08.156Z,100904.53
2017-11-07T08:30:09.479Z,100909.23
2017-11-07T08:33:10.791Z,100904.51
2017-11-07T08:36:12.118Z,100907.31
2017-11-07T08:39:14.202Z,100912.11
2017-11-07T08:42:22.574Z,100907.40
2017-11-07T08:45:23.908Z,100894.77
2017-11-07T08:48:25.947Z,100884.69
2017-11-07T08:51:27.259Z,100893.56
2017-11-07T08:54:29.309Z,100901.03
2017-11-07T08:57:30.707Z,100903.44
2017-11-07T09:00:32.057Z,100897.03
2017-11-07T09:03:33.366Z,100887.94
2017-11-07T09:06:34.755Z,100886.71
2017-11-07T09:09:36.133Z,100888.48
2017-11-07T09:12:37.498Z,100888.08
2017-11-07T09:15:38.812Z,100881.55
2017-11-07T09:18:40.167Z,100888.59
2017-11-07T09:21:41.477Z,100884.63
2017-11-07T09:24:43.592Z,100885.05
2017-11-07T09:27:44.899Z,100888.97
2017-11-07T09:30:46.958Z,100876.78
2017-11-07T09:33:48.257Z,100880.37
2017-11-07T09:36:49.581Z,100879.50
2017-11-07T09:39:50.906Z,100872.93
2017-11-07T09:42:52.965Z,100877.77
2017-11-07T09:45:54.311Z,100871.67
2017-11-07T09:48:55.625Z,100877.44
2017-11-07T09:51:56.930Z,100872.61
2017-11-07T09:54:58.967Z,100869.53
2017-11-07T09:58:00.294Z,100873.95
2017-11-07T10:01:01.622Z,100866.46
2017-11-07T10:04:02.982Z,100866.44
2017-11-07T10:07:04.274Z,100858.97
2017-11-07T10:10:05.648Z,100856.33
2017-11-07T10:13:07.694Z,100854.16
2017-11-07T10:16:08.986Z,100835.67
2017-11-07T10:19:13.194Z,100839.63
2017-11-07T10:22:14.518Z,100828.65
2017-11-07T10:25:15.890Z,100822.89
2017-11-07T10:28:17.222Z,100811.89
2017-11-07T10:31:19.350Z,100798.70
2017-11-07T10:34:20.724Z,100798.66
2017-11-07T10:37:22.059Z,100797.32
2017-11-07T10:40:23.387Z,100781.04
2017-11-07T10:43:24.718Z,100787.72
2017-11-07T10:46:26.083Z,100772.80
2017-11-07T10:49:27.379Z,100770.51
2017-11-07T10:52:28.763Z,100765.34
2017-11-07T10:55:30.122Z,100758.68
2017-11-07T10:58:31.481Z,100751.55
2017-11-07T11:01:32.817Z,100750.48
2017-11-07T11:04:34.156Z,100746.36
2017-11-07T11:07:36.242Z,100750.90
2017-11-07T11:10:37.590Z,100737.20
2017-11-07T11:13:38.928Z,100722.56
2017-11-07T11:16:40.250Z,100732.09
2017-11-07T11:19:41.538Z,100716.25
2017-11-07T11:22:42.815Z,100715.84
2017-11-07T11:25:44.171Z,100722.86
2017-11-07T11:28:46.202Z,100715.56
2017-11-07T11:31:47.536Z,100715.30
2017-11-07T11:34:49.963Z,100704.67
2017-11-07T11:37:51.283Z,100698.77
2017-11-07T11:40:52.617Z,100711.58
2017-11-07T11:43:53.939Z,100704.74
2017-11-07T11:46:56.031Z,100702.38
2017-11-07T11:49:57.346Z,100698.48
2017-11-07T11:52:58.702Z,100684.92
2017-11-07T11:56:00.023Z,100685.20
2017-11-07T11:59:01.399Z,100678.03
2017-11-07T12:02:02.846Z,100676.63
2017-11-07T12:05:04.205Z,100673.05
2017-11-07T12:08:05.612Z,100666.44
2017-11-07T12:11:06.919Z,100668.34
2017-11-07T12:14:08.999Z,100655.80
2017-11-07T12:17:11.084Z,100651.34
2017-11-07T12:20:12.443Z,100649.78
2017-11-07T12:23:13.793Z,100633.27
2017-11-07T12:26:15.147Z,100638.30
2017-11-07T12:29:16.512Z,100629.50
2017-11-07T12:32:17.883Z,100618.39
2017-11-07T12:35:19.981Z,100619.87
2017-11-07T12:38:22.081Z,100615.70
2017-11-07T12:41:23.442Z,100619.91
2017-11-07T12:44:24.759Z,100618.30
2017-11-07T12:47:26.126Z,100613.13
2017-11-07T12:50:45.871Z,100605.58
2017-11-07T12:53:47.917Z,100606.96
2017-11-07T12:56:49.317Z,100614.66
2017-11-07T12:59:50.630Z,100615.70
2017-11-07T13:02:51.927Z,100617.70
2017-11-07T13:05:53.251Z,100618.00
2017-11-07T13:08:54.610Z,100610.25
2017-11-07T13:11:55.986Z,100609.22
2017-11-07T13:14:57.280Z,100619.84
2017-11-07T13:17:58.600Z,100601.18
2017-11-07T13:20:59.912Z,100610.11
2017-11-07T13:24:01.231Z,100611.41
2017-11-07T13:27:03.264Z,100596.78
2017-11-07T13:30:04.623Z,100604.64
2017-11-07T13:33:05.943Z,100603.86
2017-11-07T13:36:07.286Z,100591.88
2017-11-07T13:39:08.597Z,100591.39
2017-11-07T13:42:10.694Z,100582.97
2017-11-07T13:45:12.039Z,100583.06
2017-11-07T13:48:13.353Z,100575.36
2017-11-07T13:51:14.687Z,100582.52
2017-11-07T13:54:16.021Z,100583.84
2017-11-07T13:57:17.366Z,100582.45
2017-11-07T14:00:18.689Z,100573.97
2017-11-07T14:03:20.034Z,100573.03
2017-11-07T14:06:21.380Z,100563.79
2017-11-07T14:09:22.706Z,100558.55
2017-11-07T14:12:24.057Z,100555.48
2017-11-07T14:15:26.122Z,100549.43
2017-11-07T14:18:27.428Z,100542.33
2017-11-07T14:21:28.746Z,100541.34
2017-11-07T14:24:30.086Z,100538.23
2017-11-07T14:27:32.188Z,100530.19
2017-11-07T14:30:33.545Z,100535.09
2017-11-07T14:33:34.890Z,100528.03
2017-11-07T14:36:36.252Z,100530.39
2017-11-07T14:39:37.576Z,100526.73
2017-11-07T14:42:38.883Z,100524.09
2017-11-07T14:45:40.207Z,100520.12
2017-11-07T14:48:41.699Z,100526.23
2017-11-07T14:51:43.074Z,100525.34
2017-11-07T14:54:44.538Z,100519.66
2017-11-07T14:57:45.866Z,100517.91
2017-11-07T15:00:47.296Z,100520.54
2017-11-07T15:03:48.657Z,100521.88
2017-11-07T15:06:50.734Z,100521.02
2017-11-07T15:09:52.811Z,100521.64
2017-11-07T15:12:54.182Z,100520.17
2017-11-07T15:15:55.475Z,100517.91
2017-11-07T15:18:56.817Z,100513.57
2017-11-07T15:21:58.137Z,100505.16
2017-11-07T15:24:59.438Z,100499.04
2017-11-07T15:28:01.516Z,100496.34
2017-11-07T15:31:03.612Z,100488.03
2017-11-07T15:34:04.922Z,100492.88
2017-11-07T15:37:06.919Z,100483.23
2017-11-07T15:40:08.218Z,100474.02
2017-11-07T15:43:09.547Z,100489.41
2017-11-07T15:46:10.896Z,100478.79
2017-11-07T15:49:12.274Z,100485.44
2017-11-07T15:52:13.638Z,100485.01
2017-11-07T15:55:15.726Z,100483.31
2017-11-07T15:58:17.007Z,100488.55
2017-11-07T16:01:18.315Z,100490.74
2017-11-07T16:04:20.327Z,100496.02
2017-11-07T16:07:21.635Z,100492.06
2017-11-07T16:10:23.005Z,100487.27
2017-11-07T16:13:24.309Z,100491.23
2017-11-07T16:16:25.762Z,100491.67
2017-11-07T16:19:27.846Z,100485.09
2017-11-07T16:22:30.086Z,100487.22
2017-11-07T16:25:31.402Z,100482.24
2017-11-07T16:28:32.827Z,100493.30
2017-11-07T16:31:34.216Z,100487.20
2017-11-07T16:34:35.784Z,100487.22
2017-11-07T16:37:37.424Z,100483.27
2017-11-07T16:40:38.949Z,100484.95
2017-11-07T16:43:40.330Z,100477.16
2017-11-07T16:46:41.736Z,100482.90
2017-11-07T16:49:45.056Z,100483.20
2017-11-07T16:52:46.439Z,100477.59
2017-11-07T16:55:47.882Z,100481.11
2017-11-07T16:58:49.341Z,100484.21
2017-11-07T17:01:50.678Z,100470.98
2017-11-07T17:04:52.184Z,100489.88
2017-11-07T17:07:54.320Z,100461.39
2017-11-07T17:10:55.872Z,100477.17
2017-11-07T17:13:57.312Z,100475.01
2017-11-07T17:16:58.707Z,100471.48
2017-11-07T17:20:01.157Z,100471.88
2017-11-07T17:23:03.511Z,100478.09
2017-11-07T17:26:04.981Z,100468.86
2017-11-07T17:29:06.373Z,100466.16
2017-11-07T17:32:08.611Z,100464.90
2017-11-07T17:35:11.008Z,100461.93
2017-11-07T17:38:12.412Z,100459.35
2017-11-07T17:41:13.759Z,100446.66
2017-11-07T17:44:15.117Z,100458.92
2017-11-07T17:47:16.518Z,100453.71
2017-11-07T17:50:17.961Z,100450.70
2017-11-07T17:53:19.379Z,100441.89
2017-11-07T17:56:20.777Z,100448.10
2017-11-07T17:59:22.387Z,100441.58
2017-11-07T18:02:23.896Z,100441.19
2017-11-07T18:05:25.984Z,100440.81
2017-11-07T18:08:27.470Z,100432.50
2017-11-07T18:11:28.919Z,100435.53
2017-11-07T18:14:30.392Z,100421.52
2017-11-07T18:17:32.013Z,100427.30
2017-11-07T18:20:44.598Z,100424.71
2017-11-07T18:23:46.265Z,100435.22
2017-11-07T18:26:48.478Z,100437.03
2017-11-07T18:29:50.032Z,100434.81
2017-11-07T18:32:51.575Z,100428.77
2017-11-07T18:35:52.982Z,100426.97
2017-11-07T18:38:55.161Z,100422.22
2017-11-07T18:41:57.295Z,100423.98
2017-11-07T18:44:58.699Z,100412.12
2017-11-07T18:48:01.008Z,100420.63
2017-11-07T18:51:02.513Z,100419.70
2017-11-07T18:54:04.758Z,100413.88
2017-11-07T18:57:06.401Z,100410.75
2017-11-07T19:00:07.951Z,100407.59
2017-11-07T19:03:10.897Z,100389.69
2017-11-07T19:06:12.548Z,100401.62
2017-11-07T19:09:14.894Z,100409.53
2017-11-07T19:12:19.313Z,100406.13
2017-11-07T19:15:20.895Z,100401.67
2017-11-07T19:18:22.439Z,100405.68
2017-11-07T19:21:24.585Z,100399.97
2017-11-07T19:24:26.153Z,100400.46
2017-11-07T19:27:27.775Z,100396.16
2017-11-07T19:30:29.212Z,100391.76
2017-11-07T19:33:30.643Z,100396.06
2017-11-07T19:36:32.155Z,100386.54
2017-11-07T19:39:34.414Z,100386.38
2017-11-07T19:42:36.198Z,100378.19
2017-11-07T19:45:37.901Z,100379.61
2017-11-07T19:48:39.329Z,100376.09
2017-11-07T19:51:41.412Z,100370.78
2017-11-07T19:54:42.818Z,100365.16
2017-11-07T19:57:44.200Z,100365.68
2017-11-07T20:00:46.502Z,100363.48
2017-11-07T20:03:48.009Z,100367.05
2017-11-07T20:06:50.258Z,100376.70
2017-11-07T20:09:51.881Z,100369.23
2017-11-07T20:12:53.475Z,100367.39
2017-11-07T20:15:55.441Z,100367.59
2017-11-07T20:18:57.617Z,100363.28
2017-11-07T20:21:59.020Z,100367.20
2017-11-07T20:25:00.484Z,100353.62
2017-11-07T20:28:01.961Z,100359.73
2017-11-07T20:31:04.060Z,100347.52
2017-11-07T20:34:06.379Z,100353.55
2017-11-07T20:37:07.788Z,100350.55
2017-11-07T20:40:10.000Z,100344.44
2017-11-07T20:43:11.522Z,100344.03
2017-11-07T20:46:13.647Z,100339.61
2017-11-07T20:49:15.263Z,100348.35
2017-11-07T20:52:16.819Z,100345.31
2017-11-07T20:55:18.212Z,100330.43
2017-11-07T20:58:19.512Z,100338.80
2017-11-07T21:01:20.901Z,100331.38
2017-11-07T21:04:22.287Z,100332.72
2017-11-07T21:07:24.400Z,100337.08
2017-11-07T21:10:26.212Z,100333.57
2017-11-07T21:13:29.756Z,100326.64
2017-11-07T21:16:31.150Z,100323.98
2017-11-07T21:19:32.506Z,100319.59
2017-11-07T21:22:34.012Z,100323.95
2017-11-07T21:25:35.328Z,100322.63
2017-11-07T21:28:37.423Z,100310.84
2017-11-07T21:31:38.987Z,100304.64
2017-11-07T21:34:40.352Z,100310.95
2017-11-07T21:37:41.753Z,100304.17
2017-11-07T21:40:43.869Z,100302.04
2017-11-07T21:43:45.645Z,100304.67
2017-11-07T21:46:47.311Z,100297.22
2017-11-07T21:49:48.895Z,100291.58
2017-11-07T21:52:50.634Z,100289.85
2017-11-07T21:55:52.262Z,100290.32
2017-11-07T21:58:53.712Z,100289.06
2017-11-07T22:01:55.048Z,100289.09
2017-11-07T22:04:57.527Z,100285.17
2017-11-07T22:07:58.976Z,100295.20
2017-11-07T22:11:00.430Z,100296.61
2017-11-07T22:14:01.786Z,100289.97
2017-11-07T22:17:05.113Z,100289.55
2017-11-07T22:20:06.850Z,100292.16
2017-11-07T22:23:14.281Z,100291.33
2017-11-07T22:26:15.745Z,100289.09
2017-11-07T22:29:17.938Z,100283.80
2017-11-07T22:32:19.952Z,100288.16
2017-11-07T22:35:21.427Z,100275.00
2017-11-07T22:38:22.747Z,100276.31
2017-11-07T22:41:24.146Z,100275.00
2017-11-07T22:44:26.278Z,100281.11
2017-11-07T22:47:27.628Z,100273.72
2017-11-07T22:50:29.726Z,100271.09
2017-11-07T22:53:31.817Z,100261.91
2017-11-07T22:56:33.150Z,100255.70
2017-11-07T22:59:35.236Z,100263.16
2017-11-07T23:02:36.542Z,100267.05
2017-11-07T23:05:37.874Z,100267.95
2017-11-07T23:08:39.244Z,100260.91
2017-11-07T23:11:40.637Z,100255.23
2017-11-07T23:14:41.997Z,100264.94
2017-11-07T23:17:43.306Z,100260.59
2017-11-07T23:20:45.395Z,100256.95
2017-11-07T23:23:46.727Z,100242.45
2017-11-07T23:26:48.852Z,100253.48
2017-11-07T23:29:50.208Z,100255.57
2017-11-07T23:32:51.575Z,100252.94
2017-11-07T23:35:52.969Z,100250.74
2017-11-07T23:38:54.305Z,100261.16
2017-11-07T23:41:56.430Z,100259.01
2017-11-07T23:44:57.771Z,100249.31
2017-11-07T23:47:59.165Z,100245.77
2017-11-07T23:51:01.250Z,100246.16
2017-11-07T23:54:02.587Z,100251.03
2017-11-07T23:57:04.684Z,100242.61
